Time;durP1;ratioP1;P1;durP2;ratioP2;P2;SDS_P1;SDS_P2;PMS_P1;PMS_P2;Temp;Humidity;BMP_temperature;BMP_pressure;BME280_temperature;BME280_humidity;BME280_pressure;Samples;Min_cycle;Max_cycle;Signal;HPM_P1;HPM_P2
2020/12/23 00:01:09;;;;;;;42.33;21.45;;;10.40;82.80;;;;;;4986701;28;83209;-71
2020/12/23 00:03:35;;;;;;;42.03;20.35;;;10.40;82.80;;;;;;4989009;28;83827;-71
2020/12/23 00:06:06;;;;;;;46.92;21.08;;;10.40;82.70;;;;;;5012403;28;82680;-71
2020/12/23 00:08:33;;;;;;;40.38;20.05;;;10.50;82.70;;;;;;5005738;28;82822;-71
2020/12/23 00:10:59;;;;;;;54.92;22.67;;;10.40;82.80;;;;;;5005959;28;83314;-71
2020/12/23 00:13:25;;;;;;;46.03;20.20;;;10.40;82.80;;;;;;4987538;28;85305;-71
2020/12/23 00:15:51;;;;;;;44.65;21.08;;;10.40;83.00;;;;;;4987021;28;83730;-72
2020/12/23 00:18:17;;;;;;;61.58;23.90;;;10.30;83.20;;;;;;5005432;28;82867;-71
2020/12/23 00:20:42;;;;;;;47.58;21.48;;;10.40;83.00;;;;;;5005601;28;83471;-73
2020/12/23 00:23:08;;;;;;;38.85;19.38;;;10.30;83.20;;;;;;5005777;28;82742;-71
2020/12/23 00:25:34;;;;;;;45.85;18.75;;;10.30;83.20;;;;;;4986336;28;86804;-72
2020/12/23 00:28:01;;;;;;;45.88;20.13;;;10.30;83.40;;;;;;5004219;28;83455;-72
2020/12/23 00:30:30;;;;;;;55.05;21.90;;;10.20;83.40;;;;;;5004963;28;83534;-73
2020/12/23 00:32:56;;;;;;;59.78;21.30;;;10.20;83.30;;;;;;4987084;28;83615;-73
2020/12/23 00:35:23;;;;;;;49.83;21.73;;;10.20;83.40;;;;;;4986676;28;84263;-74
2020/12/23 00:37:54;;;;;;;94.10;24.27;;;10.10;83.50;;;;;;4985841;28;82395;-74
2020/12/23 00:40:27;;;;;;;58.95;21.83;;;10.10;83.70;;;;;;4988143;28;82582;-73
2020/12/23 00:42:57;;;;;;;85.50;22.73;;;10.20;83.80;;;;;;4971140;28;82660;-73
2020/12/23 00:45:23;;;;;;;49.40;20.45;;;10.20;83.70;;;;;;4986722;28;84243;-73
2020/12/23 00:47:49;;;;;;;109.35;22.48;;;10.20;83.60;;;;;;4986777;28;83058;-72
2020/12/23 00:50:14;;;;;;;98.43;21.80;;;10.20;83.40;;;;;;4986535;28;84861;-72
2020/12/23 00:52:40;;;;;;;86.53;20.50;;;10.10;83.80;;;;;;4987006;28;84904;-71
2020/12/23 00:55:06;;;;;;;73.00;21.70;;;10.10;83.90;;;;;;4986843;28;83727;-71
2020/12/23 00:57:31;;;;;;;64.72;21.48;;;10.10;83.70;;;;;;5004889;28;82763;-71
2020/12/23 00:59:57;;;;;;;68.88;21.45;;;10.10;83.60;;;;;;5005045;28;83181;-72
2020/12/23 01:02:23;;;;;;;46.08;19.00;;;10.20;83.50;;;;;;5005018;28;82692;-72
2020/12/23 01:04:50;;;;;;;60.60;19.83;;;10.20;83.50;;;;;;5005024;28;82493;-72
2020/12/23 01:07:16;;;;;;;52.70;19.88;;;10.20;83.50;;;;;;4986534;28;83521;-73
2020/12/23 01:09:42;;;;;;;62.10;20.50;;;10.20;83.50;;;;;;4986631;28;82509;-72
2020/12/23 01:12:08;;;;;;;63.03;20.15;;;10.20;83.30;;;;;;4986054;28;82749;-71
2020/12/23 01:14:34;;;;;;;52.88;20.80;;;10.20;83.40;;;;;;4986398;28;83419;-71
2020/12/23 01:16:59;;;;;;;66.18;21.67;;;10.20;83.40;;;;;;5005120;28;82641;-71
2020/12/23 01:19:25;;;;;;;62.22;18.00;;;10.20;83.40;;;;;;4986386;28;83678;-71
2020/12/23 01:21:51;;;;;;;55.38;20.05;;;10.20;83.40;;;;;;5004189;28;84817;-70
2020/12/23 01:24:16;;;;;;;98.63;20.30;;;10.20;83.40;;;;;;5004015;28;83482;-70
2020/12/23 01:26:42;;;;;;;48.97;19.45;;;10.20;83.30;;;;;;4986020;28;83721;-71
2020/12/23 01:29:08;;;;;;;72.10;19.27;;;10.10;83.40;;;;;;4985959;28;83356;-71
2020/12/23 01:31:34;;;;;;;102.05;18.88;;;10.10;83.40;;;;;;5004373;28;82311;-72
2020/12/23 01:33:59;;;;;;;62.38;19.58;;;10.00;83.50;;;;;;5004466;28;83697;-71
2020/12/23 01:36:25;;;;;;;69.80;18.30;;;9.90;83.70;;;;;;4985851;28;85476;-72
2020/12/23 01:38:51;;;;;;;110.60;20.23;;;9.90;83.80;;;;;;4985981;28;86327;-72
2020/12/23 01:41:17;;;;;;;56.35;18.75;;;9.90;83.80;;;;;;5004236;28;82725;-73
2020/12/23 01:43:51;;;;;;;82.57;20.75;;;9.90;83.80;;;;;;5003412;28;85100;-70
2020/12/23 01:46:18;;;;;;;81.45;19.88;;;9.90;84.00;;;;;;5004229;28;82818;-71
2020/12/23 01:48:43;;;;;;;51.72;18.60;;;9.90;84.00;;;;;;4985457;28;85529;-71
2020/12/23 01:51:10;;;;;;;98.00;21.27;;;9.90;84.20;;;;;;5003758;28;82985;-71
2020/12/23 01:53:36;;;;;;;68.78;18.33;;;9.90;84.20;;;;;;4985940;28;83524;-72
2020/12/23 01:56:03;;;;;;;55.83;18.17;;;9.90;84.10;;;;;;4985682;28;82986;-71
2020/12/23 01:58:29;;;;;;;44.72;19.80;;;9.90;84.00;;;;;;4985212;28;84792;-71
2020/12/23 02:00:57;;;;;;;53.95;18.52;;;10.00;83.90;;;;;;5003327;28;84623;-70
2020/12/23 02:03:24;;;;;;;65.43;18.60;;;10.00;83.80;;;;;;5004231;28;83858;-71
2020/12/23 02:05:50;;;;;;;100.53;19.67;;;10.00;83.80;;;;;;4968878;28;83092;-71
2020/12/23 02:08:15;;;;;;;54.70;19.42;;;10.00;83.70;;;;;;4985642;28;84132;-71
2020/12/23 02:10:43;;;;;;;63.13;19.05;;;9.90;83.60;;;;;;4985360;28;84286;-72
2020/12/23 02:13:12;;;;;;;108.60;20.13;;;10.00;83.60;;;;;;5002765;28;82571;-71
2020/12/23 02:15:42;;;;;;;120.85;23.02;;;9.90;83.70;;;;;;5002798;28;83120;-71
2020/12/23 02:18:09;;;;;;;86.50;20.48;;;9.90;83.80;;;;;;4985552;28;83627;-71
2020/12/23 02:20:38;;;;;;;99.38;19.70;;;9.90;84.00;;;;;;4986271;28;83217;-71
2020/12/23 02:23:04;;;;;;;129.90;20.98;;;9.90;84.00;;;;;;5004148;28;82705;-70
2020/12/23 02:25:29;;;;;;;67.13;19.88;;;10.00;84.10;;;;;;5003781;28;82897;-70
2020/12/23 02:27:55;;;;;;;59.60;19.65;;;9.90;84.20;;;;;;4984620;28;85046;-70
2020/12/23 02:30:21;;;;;;;48.97;19.13;;;9.90;84.20;;;;;;5003741;28;82745;-70
2020/12/23 02:32:47;;;;;;;49.65;16.00;;;9.90;84.10;;;;;;5003648;28;83271;-71
2020/12/23 02:35:12;;;;;;;42.80;15.63;;;9.90;84.00;;;;;;5002229;28;82918;-71
2020/12/23 02:37:40;;;;;;;45.85;16.95;;;9.90;83.80;;;;;;4985113;28;83302;-71
2020/12/23 02:40:06;;;;;;;47.30;14.98;;;10.00;83.70;;;;;;5002991;28;82897;-71
2020/12/23 02:42:35;;;;;;;40.08;15.48;;;9.90;83.60;;;;;;5003286;28;83073;-71
2020/12/23 02:45:00;;;;;;;42.00;16.30;;;9.90;83.60;;;;;;4982969;28;83113;-70
2020/12/23 02:47:26;;;;;;;53.40;15.48;;;9.90;83.60;;;;;;4985227;28;83285;-70
2020/12/23 02:49:52;;;;;;;70.70;15.55;;;9.90;83.50;;;;;;5003714;28;82486;-71
2020/12/23 02:52:18;;;;;;;82.18;16.85;;;9.90;83.40;;;;;;4968830;28;85708;-70
2020/12/23 02:54:44;;;;;;;54.67;16.50;;;9.90;83.40;;;;;;5002551;28;84679;-71
2020/12/23 02:57:11;;;;;;;69.22;17.55;;;9.90;83.50;;;;;;5002094;28;83113;-71
2020/12/23 02:59:39;;;;;;;45.95;16.15;;;9.90;83.50;;;;;;5002744;28;84442;-70
2020/12/23 03:02:05;;;;;;;49.45;15.55;;;9.90;83.60;;;;;;4984927;28;85739;-70
2020/12/23 03:04:31;;;;;;;71.30;17.02;;;9.90;83.60;;;;;;5002552;28;82852;-70
2020/12/23 03:06:57;;;;;;;60.13;18.75;;;9.80;83.70;;;;;;4984739;28;83415;-71
2020/12/23 03:09:23;;;;;;;102.15;20.05;;;9.80;83.80;;;;;;5003016;28;82828;-71
2020/12/23 03:11:49;;;;;;;103.88;19.98;;;9.80;84.00;;;;;;5002685;28;83281;-71
2020/12/23 03:14:16;;;;;;;96.95;18.60;;;9.80;84.30;;;;;;5003329;28;83198;-71
2020/12/23 03:16:42;;;;;;;129.13;20.13;;;9.80;84.50;;;;;;4985050;28;83825;-71
2020/12/23 03:19:09;;;;;;;231.95;22.85;;;9.80;84.70;;;;;;5001674;28;83201;-71
2020/12/23 03:21:34;;;;;;;78.63;17.42;;;9.80;84.80;;;;;;4987874;28;83693;-71
2020/12/23 03:24:00;;;;;;;82.43;17.58;;;9.70;85.00;;;;;;4995872;28;82680;-70
2020/12/23 03:26:26;;;;;;;59.88;16.92;;;9.70;85.10;;;;;;4996252;28;86376;-71
2020/12/23 03:28:52;;;;;;;87.30;16.55;;;9.70;85.30;;;;;;5004416;28;84300;-72
2020/12/23 03:31:18;;;;;;;80.43;17.90;;;9.70;85.40;;;;;;5004213;28;86282;-71
2020/12/23 03:33:46;;;;;;;72.75;16.17;;;9.70;85.50;;;;;;5023037;28;82804;-71
2020/12/23 03:36:12;;;;;;;73.22;15.95;;;9.70;85.60;;;;;;5023020;28;83120;-71
2020/12/23 03:38:38;;;;;;;51.90;14.50;;;9.70;85.70;;;;;;5004610;28;83319;-71
2020/12/23 03:41:04;;;;;;;52.75;15.65;;;9.70;85.50;;;;;;5025181;28;83245;-71
2020/12/23 03:43:29;;;;;;;55.47;16.15;;;9.70;85.50;;;;;;5025553;28;83463;-71
2020/12/23 03:45:55;;;;;;;49.67;14.05;;;9.70;85.50;;;;;;5007583;28;84868;-71
2020/12/23 03:48:21;;;;;;;49.05;14.02;;;9.70;85.50;;;;;;5007645;28;83487;-71
2020/12/23 03:50:47;;;;;;;47.83;13.35;;;9.70;85.30;;;;;;5026558;28;82622;-71
2020/12/23 03:53:13;;;;;;;37.83;13.32;;;9.80;85.20;;;;;;5025754;28;82787;-70
2020/12/23 03:55:39;;;;;;;30.35;12.13;;;9.70;85.10;;;;;;5025636;28;83858;-71
2020/12/23 03:58:05;;;;;;;29.25;10.80;;;9.70;85.30;;;;;;5025261;28;83346;-70
2020/12/23 04:00:30;;;;;;;26.30;11.73;;;9.70;85.20;;;;;;5007011;28;86776;-71
2020/12/23 04:02:56;;;;;;;22.83;10.43;;;9.70;85.10;;;;;;5025963;28;82780;-71
2020/12/23 04:05:22;;;;;;;23.25;10.52;;;9.80;84.90;;;;;;5007275;28;85646;-71
2020/12/23 04:07:47;;;;;;;31.45;10.85;;;9.70;84.80;;;;;;5007256;28;82953;-70
2020/12/23 04:10:13;;;;;;;24.00;11.18;;;9.80;84.70;;;;;;5025473;28;83330;-70
2020/12/23 04:12:39;;;;;;;27.65;9.77;;;9.70;84.60;;;;;;5025384;28;83442;-70
2020/12/23 04:15:10;;;;;;;26.75;10.60;;;9.70;84.50;;;;;;4992877;28;82308;-71
2020/12/23 04:17:36;;;;;;;18.63;9.75;;;9.80;84.40;;;;;;5025495;28;82708;-71
2020/12/23 04:20:05;;;;;;;20.98;9.73;;;9.70;84.40;;;;;;5009782;28;81741;-71
2020/12/23 04:22:32;;;;;;;24.35;10.23;;;9.70;84.50;;;;;;5027562;28;80205;-70
2020/12/23 04:24:59;;;;;;;20.90;8.68;;;9.70;84.50;;;;;;5006744;28;85511;-71
2020/12/23 04:27:25;;;;;;;22.08;9.00;;;9.70;84.40;;;;;;5009572;28;83007;-70
2020/12/23 04:29:50;;;;;;;20.05;9.90;;;9.80;84.40;;;;;;5009904;28;82311;-70
2020/12/23 04:32:17;;;;;;;22.60;9.65;;;9.80;84.30;;;;;;5009418;28;82545;-69
2020/12/23 04:34:43;;;;;;;22.63;9.52;;;9.80;84.10;;;;;;5009574;28;80999;-70
2020/12/23 04:37:09;;;;;;;26.13;8.43;;;9.80;84.10;;;;;;4992848;28;81352;-70
2020/12/23 04:39:35;;;;;;;16.73;9.02;;;9.80;83.90;;;;;;5028420;28;80019;-70
2020/12/23 04:42:00;;;;;;;16.58;9.23;;;9.70;83.90;;;;;;5009380;28;81164;-71
2020/12/23 04:44:26;;;;;;;18.90;11.32;;;9.70;83.90;;;;;;5027778;28;81022;-71
2020/12/23 04:46:53;;;;;;;16.98;7.18;;;9.70;83.90;;;;;;5024725;28;82535;-71
2020/12/23 04:49:22;;;;;;;16.92;8.48;;;9.70;83.70;;;;;;5027734;28;81016;-71
2020/12/23 04:51:57;;;;;;;15.23;7.65;;;9.60;83.80;;;;;;5027638;28;80361;-72
2020/12/23 04:54:24;;;;;;;13.52;8.00;;;9.60;83.70;;;;;;5009556;28;81890;-72
2020/12/23 04:56:50;;;;;;;12.05;7.32;;;9.70;83.70;;;;;;5008777;28;80963;-72
2020/12/23 04:59:17;;;;;;;15.05;7.03;;;9.70;83.50;;;;;;5008200;28;80822;-71
2020/12/23 05:01:45;;;;;;;11.10;5.93;;;9.70;83.20;;;;;;5001935;28;82716;-71
2020/12/23 05:04:11;;;;;;;12.35;6.53;;;9.70;82.80;;;;;;5027072;28;81829;-71
2020/12/23 05:06:38;;;;;;;9.88;6.00;;;9.70;82.60;;;;;;5027092;28;82097;-72
2020/12/23 05:09:06;;;;;;;12.63;6.65;;;9.70;82.60;;;;;;5009273;28;80746;-72
2020/12/23 05:11:35;;;;;;;9.95;6.10;;;9.70;82.60;;;;;;5027814;28;80480;-71
2020/12/23 05:14:08;;;;;;;14.13;7.10;;;9.70;82.50;;;;;;5027337;28;80573;-71
2020/12/23 05:16:38;;;;;;;10.02;5.68;;;9.70;82.40;;;;;;4992314;28;81190;-71
2020/12/23 05:19:04;;;;;;;8.85;5.50;;;9.70;82.40;;;;;;5027578;28;80369;-71
2020/12/23 05:21:32;;;;;;;9.30;5.05;;;9.70;82.40;;;;;;4992569;28;82481;-71
2020/12/23 05:23:58;;;;;;;10.32;5.40;;;9.70;82.30;;;;;;5009225;28;79747;-71
2020/12/23 05:26:25;;;;;;;9.13;5.43;;;9.70;82.20;;;;;;5008948;28;80350;-71
2020/12/23 05:28:52;;;;;;;10.95;6.25;;;9.70;82.20;;;;;;5008372;28;80987;-71
2020/12/23 05:31:20;;;;;;;9.77;5.13;;;9.80;82.20;;;;;;4992532;28;80357;-71
2020/12/23 05:33:48;;;;;;;7.72;4.53;;;9.80;82.10;;;;;;5008724;28;80940;-73
2020/12/23 05:36:19;;;;;;;9.38;5.07;;;9.80;82.10;;;;;;4976321;28;79813;-71
2020/12/23 05:38:45;;;;;;;7.68;4.65;;;9.80;81.90;;;;;;5026282;28;80759;-71
2020/12/23 05:41:14;;;;;;;10.68;5.53;;;9.80;81.80;;;;;;5009018;28;79728;-71
2020/12/23 05:43:44;;;;;;;11.00;5.28;;;9.70;81.70;;;;;;5008591;28;81938;-71
2020/12/23 05:46:12;;;;;;;9.77;5.88;;;9.70;81.80;;;;;;5005692;28;80426;-72
2020/12/23 05:48:42;;;;;;;8.57;5.47;;;9.70;82.00;;;;;;5008209;28;80726;-72
2020/12/23 05:51:09;;;;;;;9.68;5.72;;;9.70;82.00;;;;;;5026409;28;80106;-72
2020/12/23 05:53:37;;;;;;;10.40;5.68;;;9.70;81.90;;;;;;5026561;28;81773;-72
2020/12/23 05:56:08;;;;;;;12.82;4.82;;;9.60;82.10;;;;;;5008727;28;80220;-73
2020/12/23 05:58:39;;;;;;;9.02;4.85;;;9.60;82.10;;;;;;4991905;28;80912;-72
2020/12/23 06:01:11;;;;;;;9.15;4.68;;;9.60;82.20;;;;;;5008251;28;80457;-72
2020/12/23 06:03:57;;;;;;;9.02;5.18;;;9.50;82.20;;;;;;5021157;28;80355;-72
2020/12/23 06:06:28;;;;;;;9.38;5.30;;;9.60;82.20;;;;;;5008402;28;79730;-71
2020/12/23 06:08:59;;;;;;;12.18;5.55;;;9.60;82.20;;;;;;5026428;28;80748;-71
2020/12/23 06:11:29;;;;;;;7.10;4.10;;;9.60;82.10;;;;;;5026567;28;80396;-71
2020/12/23 06:14:14;;;;;;;7.15;4.25;;;9.60;82.10;;;;;;5026545;28;80933;-71
2020/12/23 06:16:58;;;;;;;8.55;5.03;;;9.70;82.00;;;;;;5026656;28;80277;-72
2020/12/23 06:19:37;;;;;;;7.90;4.70;;;9.60;82.10;;;;;;5007986;28;82072;-72
2020/12/23 06:22:05;;;;;;;10.00;4.35;;;9.60;82.10;;;;;;5008291;28;81168;-71
2020/12/23 06:24:31;;;;;;;7.22;4.10;;;9.60;82.10;;;;;;5026210;28;80637;-71
2020/12/23 06:27:00;;;;;;;6.80;4.30;;;9.50;82.10;;;;;;5026528;28;80478;-71
2020/12/23 06:29:29;;;;;;;6.93;3.92;;;9.60;82.10;;;;;;4993234;28;81860;-72
2020/12/23 06:32:04;;;;;;;7.32;3.90;;;9.60;82.10;;;;;;5012109;28;80235;-71
2020/12/23 06:34:35;;;;;;;7.43;4.13;;;9.60;82.00;;;;;;4980605;28;81972;-72
2020/12/23 06:37:15;;;;;;;7.28;3.90;;;9.50;82.10;;;;;;4977445;28;81935;-72
2020/12/23 06:40:04;;;;;;;8.93;4.60;;;9.60;82.10;;;;;;4997822;28;81147;-71
2020/12/23 06:42:32;;;;;;;9.82;4.70;;;9.60;82.10;;;;;;4983819;28;80657;-72
2020/12/23 06:45:09;;;;;;;8.88;5.00;;;9.60;82.20;;;;;;4966140;28;81148;-72
2020/12/23 06:47:37;;;;;;;8.15;4.45;;;9.60;82.30;;;;;;4979469;28;81056;-72
2020/12/23 06:50:10;;;;;;;8.50;4.97;;;9.60;82.30;;;;;;4995265;28;81056;-72
2020/12/23 06:52:41;;;;;;;9.05;5.57;;;9.60;82.40;;;;;;4994728;28;81529;-71
2020/12/23 06:55:18;;;;;;;10.55;5.28;;;9.60;82.40;;;;;;5008143;28;80864;-71
2020/12/23 06:57:49;;;;;;;17.75;5.50;;;9.70;82.40;;;;;;4987634;28;81151;-71
2020/12/23 07:00:24;;;;;;;11.23;5.53;;;9.60;82.40;;;;;;4993241;28;80925;-72
2020/12/23 07:02:57;;;;;;;12.35;6.78;;;9.60;82.50;;;;;;4993406;28;81109;-71
2020/12/23 07:05:23;;;;;;;;;;;9.60;82.50;;;;;;5010953;28;80179;-70
2020/12/23 07:07:54;;;;;;;10.82;5.88;;;9.60;82.40;;;;;;4998395;28;81971;-71
2020/12/23 07:10:35;;;;;;;7.72;4.60;;;9.60;82.60;;;;;;5011384;28;81067;-71
2020/12/23 07:13:06;;;;;;;9.43;5.15;;;9.60;82.50;;;;;;5006977;28;80818;-70
2020/12/23 07:15:38;;;;;;;7.38;4.18;;;9.60;82.50;;;;;;5012023;28;81663;-73
2020/12/23 07:18:27;;;;;;;9.07;4.68;;;9.60;82.50;;;;;;4996516;28;81978;-74
2020/12/23 07:21:02;;;;;;;10.55;4.75;;;9.60;82.50;;;;;;4996535;28;82157;-71
2020/12/23 07:23:36;;;;;;;8.45;4.47;;;9.60;82.40;;;;;;4997074;28;80729;-71
2020/12/23 07:26:07;;;;;;;8.73;4.60;;;9.60;82.50;;;;;;4980399;28;81082;-72
2020/12/23 07:28:48;;;;;;;9.68;4.55;;;9.60;82.30;;;;;;4994184;28;82849;-72
2020/12/23 07:31:16;;;;;;;10.20;5.53;;;9.40;82.50;;;;;;4997499;28;81388;-73
2020/12/23 07:33:49;;;;;;;11.93;4.53;;;9.40;82.80;;;;;;5013807;28;81273;-71
2020/12/23 07:36:15;;;;;;;11.90;4.78;;;9.30;83.00;;;;;;4996903;28;81069;-71
2020/12/23 07:38:45;;;;;;;7.25;4.57;;;9.30;83.00;;;;;;5012761;28;82099;-71
2020/12/23 07:41:17;;;;;;;10.65;4.70;;;9.20;83.20;;;;;;5014415;28;81338;-72
2020/12/23 07:43:43;;;;;;;9.77;5.43;;;9.30;83.20;;;;;;4979776;28;81468;-69
2020/12/23 07:46:09;;;;;;;10.05;5.03;;;9.30;83.00;;;;;;5014092;28;81819;-71
2020/12/23 07:48:35;;;;;;;9.02;4.82;;;9.40;83.00;;;;;;4995721;28;82544;-70
2020/12/23 07:51:01;;;;;;;9.55;4.43;;;9.40;83.00;;;;;;5014240;28;81690;-70
2020/12/23 07:53:29;;;;;;;7.75;4.50;;;9.50;83.00;;;;;;5014510;28;81263;-72
2020/12/23 07:56:05;;;;;;;10.45;5.22;;;9.50;82.80;;;;;;4996226;28;81321;-71
2020/12/23 07:58:35;;;;;;;12.65;4.90;;;9.60;82.70;;;;;;4996368;28;82152;-71
2020/12/23 08:01:03;;;;;;;10.60;4.32;;;9.60;82.60;;;;;;4996557;28;80755;-72
2020/12/23 08:03:30;;;;;;;10.52;4.97;;;9.60;82.50;;;;;;4993575;28;80116;-66
2020/12/23 08:06:10;;;;;;;14.27;6.00;;;9.60;82.60;;;;;;4995684;28;81400;-65
2020/12/23 08:08:37;;;;;;;9.65;5.55;;;9.60;82.60;;;;;;4996253;28;81758;-68
2020/12/23 08:11:22;;;;;;;10.50;5.18;;;9.60;82.60;;;;;;5011897;28;81520;-69
2020/12/23 08:13:47;;;;;;;10.18;4.63;;;9.70;82.70;;;;;;5011897;28;81437;-67
2020/12/23 08:16:15;;;;;;;8.68;5.25;;;9.70;82.60;;;;;;4993356;28;84701;-68
2020/12/23 08:18:42;;;;;;;9.93;4.78;;;9.70;82.20;;;;;;5010671;28;80476;-66
2020/12/23 08:21:13;;;;;;;8.52;5.05;;;9.70;82.20;;;;;;5011705;28;81232;-66
2020/12/23 08:23:39;;;;;;;8.30;4.80;;;9.70;82.30;;;;;;5013466;28;81496;-68
2020/12/23 08:26:06;;;;;;;14.63;4.88;;;9.80;82.40;;;;;;4994698;28;81996;-67
2020/12/23 08:28:39;;;;;;;11.68;5.00;;;9.90;82.30;;;;;;4995381;28;84612;-68
2020/12/23 08:31:27;;;;;;;13.57;5.53;;;9.90;82.30;;;;;;4994028;28;83463;-68
2020/12/23 08:33:58;;;;;;;14.25;5.75;;;9.90;82.20;;;;;;4993573;28;82567;-66
2020/12/23 08:36:24;;;;;;;13.90;5.68;;;9.90;82.20;;;;;;5013989;28;81102;-68
2020/12/23 08:38:51;;;;;;;17.42;6.32;;;9.90;82.10;;;;;;5013389;28;81707;-68
2020/12/23 08:41:20;;;;;;;11.77;5.75;;;9.90;82.10;;;;;;5013645;28;82084;-70
2020/12/23 08:43:48;;;;;;;11.93;5.60;;;10.00;81.90;;;;;;5013625;28;81879;-68
2020/12/23 08:46:20;;;;;;;13.07;6.15;;;10.00;81.80;;;;;;5013414;28;81687;-68
2020/12/23 08:48:47;;;;;;;11.80;7.10;;;10.00;81.70;;;;;;5013535;28;82465;-66
2020/12/23 08:51:18;;;;;;;13.70;6.35;;;10.00;81.70;;;;;;5012783;28;81745;-67
2020/12/23 08:53:43;;;;;;;14.23;6.25;;;10.10;81.70;;;;;;4994723;28;83296;-66
2020/12/23 08:56:26;;;;;;;13.27;5.93;;;10.10;81.60;;;;;;5012827;28;81449;-67
2020/12/23 08:59:09;;;;;;;14.93;6.55;;;10.10;81.60;;;;;;5012212;28;80469;-69
2020/12/23 09:01:35;;;;;;;13.38;6.68;;;10.20;81.50;;;;;;4994965;28;83792;-69
2020/12/23 09:04:04;;;;;;;12.18;6.30;;;10.20;81.40;;;;;;4994641;28;81977;-68
2020/12/23 09:06:31;;;;;;;16.27;6.72;;;10.20;81.30;;;;;;5012947;28;80955;-69
2020/12/23 09:09:17;;;;;;;20.08;6.78;;;10.30;81.30;;;;;;5012956;28;81261;-70
2020/12/23 09:11:49;;;;;;;18.08;7.60;;;10.30;81.20;;;;;;4994478;28;84956;-67
2020/12/23 09:14:36;;;;;;;15.13;6.80;;;10.30;81.20;;;;;;5013405;28;82235;-69
2020/12/23 09:17:14;;;;;;;16.02;6.70;;;10.30;81.10;;;;;;4994336;28;83784;-68
2020/12/23 09:19:50;;;;;;;13.88;7.05;;;10.40;80.90;;;;;;4994803;28;81679;-67
2020/12/23 09:22:24;;;;;;;13.95;5.90;;;10.40;80.80;;;;;;5011596;28;80530;-68
2020/12/23 09:24:50;;;;;;;;;;;10.40;80.70;;;;;;5012727;28;80260;-66
2020/12/23 09:27:24;;;;;;;13.68;6.05;;;10.40;80.50;;;;;;4999090;28;76464;-67
2020/12/23 09:29:53;;;;;;;12.65;6.43;;;10.40;80.50;;;;;;5011853;28;80749;-67
2020/12/23 09:32:19;;;;;;;10.85;5.35;;;10.40;80.40;;;;;;4993876;28;82854;-68
2020/12/23 09:34:45;;;;;;;12.85;5.45;;;10.50;80.30;;;;;;5012003;28;80934;-67
2020/12/23 09:37:11;;;;;;;11.55;6.75;;;10.60;80.20;;;;;;5009383;28;81538;-69
2020/12/23 09:39:38;;;;;;;11.98;6.15;;;10.60;80.10;;;;;;5012378;28;81157;-68
2020/12/23 09:42:05;;;;;;;11.90;5.60;;;10.50;80.00;;;;;;5012040;28;81239;-69
2020/12/23 09:44:35;;;;;;;15.40;6.35;;;10.60;79.80;;;;;;5011486;28;82235;-69
2020/12/23 09:47:01;;;;;;;22.27;8.10;;;10.50;79.70;;;;;;5010341;28;80849;-69
2020/12/23 09:49:27;;;;;;;12.07;6.78;;;10.60;79.40;;;;;;5012044;28;81300;-68
2020/12/23 09:51:53;;;;;;;10.75;5.70;;;10.60;79.40;;;;;;5012022;28;81157;-68
2020/12/23 09:54:20;;;;;;;14.70;6.57;;;10.70;79.30;;;;;;4992636;28;84729;-68
2020/12/23 09:56:55;;;;;;;13.40;6.43;;;10.70;79.20;;;;;;5009032;28;81417;-69
2020/12/23 09:59:21;;;;;;;12.35;6.22;;;10.70;79.10;;;;;;5011727;28;80949;-66
2020/12/23 10:01:47;;;;;;;10.98;5.93;;;10.80;79.20;;;;;;5011467;28;81189;-66
2020/12/23 10:04:13;;;;;;;10.88;6.32;;;10.80;79.00;;;;;;5011526;28;81213;-67
2020/12/23 10:06:38;;;;;;;12.48;6.05;;;10.80;78.80;;;;;;4993574;28;81720;-69
2020/12/23 10:09:05;;;;;;;11.57;5.95;;;10.70;78.50;;;;;;5012148;28;81083;-67
2020/12/23 10:11:32;;;;;;;13.20;6.15;;;10.50;79.00;;;;;;5011123;28;81611;-69
2020/12/23 10:13:58;;;;;;;13.43;6.10;;;10.40;79.50;;;;;;5011762;28;81454;-69
2020/12/23 10:16:30;;;;;;;14.18;6.45;;;10.40;79.60;;;;;;5012386;28;81345;-69
2020/12/23 10:18:57;;;;;;;12.45;6.32;;;10.40;79.60;;;;;;5011959;28;81190;-70
2020/12/23 10:21:22;;;;;;;14.80;7.38;;;10.50;79.50;;;;;;5011371;28;81162;-69
2020/12/23 10:23:48;;;;;;;14.18;7.32;;;10.50;79.40;;;;;;5011707;28;81627;-67
2020/12/23 10:26:14;;;;;;;15.18;7.68;;;10.50;79.40;;;;;;5010961;28;81954;-66
2020/12/23 10:28:40;;;;;;;16.90;6.97;;;10.50;79.30;;;;;;5011411;28;81483;-66
2020/12/23 10:31:07;;;;;;;16.63;6.97;;;10.50;79.30;;;;;;4992930;28;83185;-68
2020/12/23 10:33:36;;;;;;;13.13;6.72;;;10.60;79.00;;;;;;5011507;28;81313;-68
2020/12/23 10:36:06;;;;;;;14.77;7.63;;;10.60;78.90;;;;;;5010566;28;81386;-67
2020/12/23 10:38:33;;;;;;;11.88;6.30;;;10.60;78.90;;;;;;5011162;28;81615;-63
2020/12/23 10:40:58;;;;;;;16.27;7.20;;;10.70;78.70;;;;;;5012510;28;81330;-67
2020/12/23 10:43:24;;;;;;;15.10;6.95;;;10.70;78.50;;;;;;4992885;28;82572;-68
2020/12/23 10:45:50;;;;;;;13.07;7.45;;;10.70;78.20;;;;;;5011765;28;81586;-69
2020/12/23 10:48:17;;;;;;;12.88;7.20;;;10.70;78.40;;;;;;5010436;28;80785;-68
2020/12/23 10:50:44;;;;;;;16.02;6.20;;;10.70;78.40;;;;;;5014573;28;81306;-68
2020/12/23 10:53:10;;;;;;;13.82;6.50;;;10.70;78.30;;;;;;5015335;28;81151;-69
2020/12/23 10:55:35;;;;;;;19.58;7.30;;;10.70;78.60;;;;;;5015324;28;80744;-69
2020/12/23 10:58:01;;;;;;;16.25;7.45;;;10.70;78.60;;;;;;4994714;28;83428;-68
2020/12/23 11:00:27;;;;;;;13.57;6.50;;;10.70;78.50;;;;;;5013244;28;81908;-69
2020/12/23 11:02:53;;;;;;;11.98;6.47;;;10.70;78.30;;;;;;5017093;28;80343;-68
2020/12/23 11:05:19;;;;;;;13.85;7.05;;;10.60;78.70;;;;;;5013962;28;81665;-68
2020/12/23 11:07:46;;;;;;;12.40;6.85;;;10.50;78.90;;;;;;5014244;28;81184;-67
2020/12/23 11:10:12;;;;;;;14.55;8.32;;;10.60;78.80;;;;;;4996065;28;83716;-69
2020/12/23 11:12:38;;;;;;;16.50;7.65;;;10.70;78.50;;;;;;5014255;28;81543;-68
2020/12/23 11:15:04;;;;;;;15.70;8.18;;;10.70;78.40;;;;;;5014237;28;81195;-69
2020/12/23 11:17:30;;;;;;;15.80;8.07;;;10.80;78.60;;;;;;5014265;28;81727;-69
2020/12/23 11:19:56;;;;;;;16.40;9.07;;;10.90;78.30;;;;;;5013684;28;81851;-68
2020/12/23 11:22:22;;;;;;;14.65;7.78;;;10.90;78.00;;;;;;5014135;28;81483;-67
2020/12/23 11:24:47;;;;;;;18.85;9.38;;;11.00;77.80;;;;;;5012616;28;81028;-68
2020/12/23 11:27:15;;;;;;;20.30;9.27;;;11.00;77.70;;;;;;4994754;28;83362;-67
2020/12/23 11:29:41;;;;;;;18.45;8.57;;;11.00;77.30;;;;;;5013146;28;81832;-69
2020/12/23 11:32:07;;;;;;;21.42;10.13;;;11.00;77.40;;;;;;5012803;28;81648;-70
2020/12/23 11:34:33;;;;;;;15.23;8.63;;;10.90;77.50;;;;;;5010794;28;83760;-69
2020/12/23 11:37:00;;;;;;;18.95;9.88;;;11.00;77.30;;;;;;4996249;28;85811;-71
2020/12/23 11:39:26;;;;;;;17.20;9.70;;;11.00;77.30;;;;;;5013081;28;81168;-71
2020/12/23 11:41:56;;;;;;;14.25;8.40;;;11.00;77.30;;;;;;5013604;28;80928;-70
2020/12/23 11:44:22;;;;;;;14.77;7.90;;;11.00;77.40;;;;;;5014037;28;81114;-69
2020/12/23 11:46:48;;;;;;;18.10;7.90;;;11.00;77.40;;;;;;4995881;28;84571;-69
2020/12/23 11:49:14;;;;;;;13.88;7.13;;;11.10;77.10;;;;;;5012593;28;81151;-69
2020/12/23 11:51:40;;;;;;;12.55;6.97;;;11.10;77.00;;;;;;5013277;28;80289;-69
2020/12/23 11:54:06;;;;;;;13.80;8.45;;;11.20;76.80;;;;;;5013602;28;81104;-70
2020/12/23 11:56:32;;;;;;;14.57;8.65;;;11.30;76.60;;;;;;4994715;28;80624;-71
2020/12/23 11:58:58;;;;;;;15.40;8.48;;;11.40;76.20;;;;;;5014095;28;81336;-68
2020/12/23 12:01:24;;;;;;;16.92;9.13;;;11.50;75.90;;;;;;5012308;28;81009;-68
2020/12/23 12:03:49;;;;;;;19.20;8.63;;;11.50;75.70;;;;;;5012703;28;81653;-68
2020/12/23 12:06:19;;;;;;;14.70;8.05;;;11.40;75.60;;;;;;5011659;28;81318;-69
2020/12/23 12:08:45;;;;;;;16.13;8.63;;;11.40;75.80;;;;;;5012182;28;81717;-70
2020/12/23 12:11:11;;;;;;;16.63;8.57;;;11.50;75.80;;;;;;4995665;28;83965;-72
2020/12/23 12:13:36;;;;;;;17.98;7.65;;;11.50;75.70;;;;;;5013350;28;81135;-68
2020/12/23 12:16:02;;;;;;;13.73;7.63;;;11.60;75.60;;;;;;5013210;28;81185;-68
2020/12/23 12:18:31;;;;;;;17.67;8.70;;;11.60;75.60;;;;;;5013846;28;81658;-67
2020/12/23 12:20:59;;;;;;;13.98;7.82;;;11.70;75.60;;;;;;5012775;28;81209;-68
2020/12/23 12:23:24;;;;;;;16.17;9.10;;;11.70;75.50;;;;;;5000205;28;83736;-69
2020/12/23 12:25:50;;;;;;;14.27;8.10;;;11.70;75.40;;;;;;5013748;28;81626;-67
2020/12/23 12:28:16;;;;;;;14.40;8.02;;;11.70;75.30;;;;;;5013409;28;81462;-69
2020/12/23 12:30:42;;;;;;;14.75;8.13;;;11.70;75.20;;;;;;4994443;28;81252;-69
2020/12/23 12:33:15;;;;;;;14.95;8.45;;;11.70;75.10;;;;;;5014738;28;80779;-70
2020/12/23 12:35:42;;;;;;;15.40;7.55;;;11.60;75.40;;;;;;5000489;28;80570;-69
2020/12/23 12:38:08;;;;;;;19.17;9.25;;;11.50;75.50;;;;;;5009088;28;79851;-69
2020/12/23 12:40:34;;;;;;;18.55;8.95;;;11.50;75.40;;;;;;5008830;28;82748;-69
2020/12/23 12:43:02;;;;;;;18.30;9.75;;;11.60;75.40;;;;;;5008956;28;82282;-69
2020/12/23 12:45:32;;;;;;;14.52;8.45;;;11.60;75.50;;;;;;5008785;28;80429;-68